createdAt,value
2018-10-06T00:01:15.032Z,16.13
2018-10-06T00:03:44.002Z,17.17
2018-10-06T00:06:13.018Z,15.77
2018-10-06T00:08:42.126Z,16.03
2018-10-06T00:11:11.188Z,16.63
2018-10-06T00:13:40.206Z,15.73
2018-10-06T00:16:09.282Z,17.50
2018-10-06T00:18:38.649Z,17.40
2018-10-06T00:21:07.702Z,17.87
2018-10-06T00:23:36.830Z,17.97
2018-10-06T00:26:05.920Z,16.57
2018-10-06T00:28:35.030Z,19.17
2018-10-06T00:31:04.125Z,18.17
2018-10-06T00:33:34.214Z,17.73
2018-10-06T00:36:03.310Z,18.77
2018-10-06T00:38:32.416Z,17.50
2018-10-06T00:41:01.482Z,18.37
2018-10-06T00:43:30.958Z,19.17
2018-10-06T00:45:59.953Z,17.90
2018-10-06T00:48:28.985Z,18.33
2018-10-06T00:50:58.046Z,16.87
2018-10-06T00:53:27.049Z,17.07
2018-10-06T00:55:56.154Z,16.57
2018-10-06T00:58:25.185Z,16.57
2018-10-06T01:00:54.240Z,15.87
2018-10-06T01:03:23.315Z,16.47
2018-10-06T01:05:52.339Z,15.17
2018-10-06T01:08:21.458Z,16.90
2018-10-06T01:10:50.613Z,17.87
2018-10-06T01:13:19.715Z,17.93
2018-10-06T01:15:48.805Z,18.30
2018-10-06T01:18:17.781Z,17.43
2018-10-06T01:20:46.814Z,17.03
2018-10-06T01:23:15.789Z,15.83
2018-10-06T01:25:44.793Z,17.57
2018-10-06T01:28:13.906Z,16.80
2018-10-06T01:30:42.901Z,16.17
2018-10-06T01:33:11.942Z,16.90
2018-10-06T01:35:40.961Z,16.77
2018-10-06T01:38:10.055Z,16.33
2018-10-06T01:40:39.093Z,15.97
2018-10-06T01:43:08.091Z,18.70
2018-10-06T01:45:37.044Z,17.70
2018-10-06T01:48:06.724Z,17.20
2018-10-06T01:50:35.679Z,15.70
2018-10-06T01:53:04.669Z,15.87
2018-10-06T01:55:33.664Z,18.47
2018-10-06T01:58:02.646Z,16.40
2018-10-06T02:00:31.714Z,18.00
2018-10-06T02:03:00.770Z,17.53
2018-10-06T02:05:29.708Z,18.67
2018-10-06T02:07:58.862Z,18.87
2018-10-06T02:10:28.162Z,16.70
2018-10-06T02:12:57.118Z,17.10
2018-10-06T02:15:26.098Z,18.20
2018-10-06T02:17:55.111Z,16.30
2018-10-06T02:20:24.090Z,16.27
2018-10-06T02:22:53.173Z,18.17
2018-10-06T02:25:22.182Z,19.57
2018-10-06T02:27:51.181Z,18.13
2018-10-06T02:30:20.287Z,17.77
2018-10-06T02:32:49.572Z,18.57
2018-10-06T02:35:18.668Z,18.03
2018-10-06T02:37:47.686Z,17.70
2018-10-06T02:40:16.656Z,16.33
2018-10-06T02:42:45.637Z,18.83
2018-10-06T02:45:14.629Z,18.47
2018-10-06T02:47:43.646Z,18.57
2018-10-06T02:50:12.650Z,19.90
2018-10-06T02:52:41.652Z,16.97
2018-10-06T02:55:10.668Z,16.37
2018-10-06T02:57:39.648Z,17.70
2018-10-06T03:00:08.795Z,18.23
2018-10-06T03:02:37.875Z,16.37
2018-10-06T03:05:07.016Z,16.33
2018-10-06T03:07:35.985Z,18.53
2018-10-06T03:10:05.078Z,18.43
2018-10-06T03:12:34.069Z,17.13
2018-10-06T03:15:03.066Z,19.37
2018-10-06T03:17:32.082Z,19.17
2018-10-06T03:20:01.081Z,18.07
2018-10-06T03:22:30.036Z,18.83
2018-10-06T03:24:59.053Z,19.47
2018-10-06T03:27:28.045Z,18.43
2018-10-06T03:29:57.029Z,18.43
2018-10-06T03:32:26.030Z,17.43
2018-10-06T03:34:55.018Z,17.27
2018-10-06T03:37:24.009Z,17.00
2018-10-06T03:39:53.027Z,17.83
2018-10-06T03:42:22.034Z,16.30
2018-10-06T03:44:51.009Z,17.10
2018-10-06T03:47:20.046Z,17.47
2018-10-06T03:49:49.154Z,17.97
2018-10-06T03:52:18.258Z,17.97
2018-10-06T03:54:47.242Z,17.23
2018-10-06T03:57:16.341Z,17.27
2018-10-06T03:59:45.585Z,17.67
2018-10-06T04:02:14.593Z,17.00
2018-10-06T04:04:43.595Z,17.70
2018-10-06T04:07:12.595Z,16.90
2018-10-06T04:09:41.678Z,17.80
2018-10-06T04:12:10.803Z,15.83
2018-10-06T04:14:49.295Z,15.87
2018-10-06T04:17:18.283Z,16.73
2018-10-06T04:19:47.307Z,18.10
2018-10-06T04:22:16.479Z,17.53
2018-10-06T04:24:45.585Z,16.90
2018-10-06T04:27:14.675Z,15.57
2018-10-06T04:29:43.777Z,18.27
2018-10-06T04:32:12.874Z,18.43
2018-10-06T04:34:41.963Z,18.37
2018-10-06T04:37:11.069Z,19.00
2018-10-06T04:39:40.171Z,18.43
2018-10-06T04:42:09.258Z,18.37
2018-10-06T04:44:38.365Z,17.63
2018-10-06T04:47:07.382Z,18.90
2018-10-06T04:49:36.373Z,17.50
2018-10-06T04:52:05.525Z,17.77
2018-10-06T04:54:34.621Z,16.57
2018-10-06T04:57:03.701Z,17.57
2018-10-06T04:59:32.852Z,19.00
2018-10-06T05:02:01.917Z,18.87
2018-10-06T05:04:31.021Z,17.80
2018-10-06T05:07:00.021Z,17.20
2018-10-06T05:09:28.983Z,17.80
2018-10-06T05:11:58.113Z,17.00
2018-10-06T05:14:27.095Z,18.80
2018-10-06T05:16:56.144Z,19.60
2018-10-06T05:19:25.158Z,18.00
2018-10-06T05:21:54.189Z,17.07
2018-10-06T05:24:23.233Z,18.13
2018-10-06T05:26:52.209Z,18.23
2018-10-06T05:29:21.237Z,16.60
2018-10-06T05:31:50.387Z,17.50
2018-10-06T05:34:19.626Z,18.93
2018-10-06T05:36:48.713Z,16.87
2018-10-06T05:39:17.833Z,16.27
2018-10-06T05:41:46.934Z,17.10
2018-10-06T05:44:16.007Z,17.57
2018-10-06T05:46:45.103Z,18.17
2018-10-06T05:49:14.201Z,16.33
2018-10-06T05:51:43.299Z,16.90
2018-10-06T05:54:12.383Z,15.67
2018-10-06T05:56:41.466Z,16.07
2018-10-06T05:59:10.588Z,16.07
2018-10-06T06:01:39.585Z,17.50
2018-10-06T06:04:08.575Z,17.23
2018-10-06T06:06:37.568Z,16.37
2018-10-06T06:09:06.998Z,17.80
2018-10-06T06:11:36.276Z,17.33
2018-10-06T06:14:05.368Z,17.00
2018-10-06T06:16:34.430Z,18.03
2018-10-06T06:19:03.446Z,17.10
2018-10-06T06:21:32.467Z,17.33
2018-10-06T06:24:01.700Z,17.53
2018-10-06T06:26:30.509Z,16.27
2018-10-06T06:28:59.706Z,17.80
2018-10-06T06:31:28.741Z,16.00
2018-10-06T06:33:57.786Z,16.40
2018-10-06T06:36:26.772Z,16.67
2018-10-06T06:38:55.810Z,16.10
2018-10-06T06:41:24.917Z,14.00
2018-10-06T06:43:54.055Z,14.90
2018-10-06T06:46:22.990Z,15.63
2018-10-06T06:48:52.084Z,15.93
2018-10-06T06:51:21.190Z,15.97
2018-10-06T06:53:50.310Z,16.20
2018-10-06T06:56:19.301Z,14.87
2018-10-06T06:58:48.369Z,16.07
2018-10-06T07:01:17.466Z,15.63
2018-10-06T07:03:46.547Z,16.27
2018-10-06T07:06:15.638Z,15.23
2018-10-06T07:08:44.803Z,15.03
2018-10-06T07:11:13.834Z,14.80
2018-10-06T07:13:42.977Z,14.97
2018-10-06T07:16:12.048Z,14.30
2018-10-06T07:18:41.301Z,15.67
2018-10-06T07:21:10.309Z,14.17
2018-10-06T07:23:39.429Z,14.00
2018-10-06T07:26:08.493Z,15.50
2018-10-06T07:28:37.683Z,13.83
2018-10-06T07:31:06.787Z,13.60
2018-10-06T07:33:35.947Z,14.97
2018-10-06T07:36:05.042Z,14.20
2018-10-06T07:38:34.223Z,13.63
2018-10-06T07:41:03.399Z,14.27
2018-10-06T07:43:32.496Z,13.97
2018-10-06T07:46:01.600Z,13.80
2018-10-06T07:48:30.658Z,12.57
2018-10-06T07:50:59.846Z,12.13
2018-10-06T07:53:28.976Z,13.37
2018-10-06T07:55:58.036Z,14.00
2018-10-06T07:58:27.030Z,12.63
2018-10-06T08:00:56.074Z,12.30
2018-10-06T08:03:25.255Z,13.00
2018-10-06T08:05:54.325Z,12.40
2018-10-06T08:08:23.319Z,12.30
2018-10-06T08:10:52.331Z,11.53
2018-10-06T08:13:21.446Z,11.90
2018-10-06T08:15:50.528Z,12.57
2018-10-06T08:18:19.623Z,12.90
2018-10-06T08:20:48.623Z,11.73
2018-10-06T08:23:17.812Z,12.43
2018-10-06T08:25:46.870Z,12.37
2018-10-06T08:28:15.909Z,12.57
2018-10-06T08:30:44.931Z,11.17
2018-10-06T08:33:14.033Z,11.00
2018-10-06T08:35:43.061Z,10.07
2018-10-06T08:38:12.069Z,10.70
2018-10-06T08:40:41.215Z,10.30
2018-10-06T08:43:10.255Z,9.93
2018-10-06T08:45:39.419Z,8.70
2018-10-06T08:48:08.563Z,10.23
2018-10-06T08:50:37.667Z,8.97
2018-10-06T08:53:06.948Z,8.80
2018-10-06T08:55:36.048Z,9.37
2018-10-06T08:58:05.031Z,9.17
2018-10-06T09:00:34.087Z,9.70
2018-10-06T09:03:03.121Z,9.17
2018-10-06T09:05:32.205Z,8.43
2018-10-06T09:08:01.276Z,9.23
2018-10-06T09:10:30.283Z,8.63
2018-10-06T09:12:59.372Z,8.50
2018-10-06T09:15:28.395Z,8.73
2018-10-06T09:17:57.562Z,8.23
2018-10-06T09:20:26.508Z,7.83
2018-10-06T09:22:55.498Z,8.57
2018-10-06T09:25:24.663Z,8.30
2018-10-06T09:27:53.648Z,8.73
2018-10-06T09:30:22.654Z,8.33
2018-10-06T09:32:51.766Z,7.63
2018-10-06T09:35:20.914Z,8.07
2018-10-06T09:37:50.031Z,7.70
2018-10-06T09:40:19.078Z,8.13
2018-10-06T09:42:48.219Z,7.80
2018-10-06T09:45:17.178Z,7.77
2018-10-06T09:47:46.306Z,8.13
2018-10-06T09:50:15.338Z,7.03
2018-10-06T09:52:44.342Z,6.97
2018-10-06T09:55:13.474Z,7.43
2018-10-06T09:57:42.615Z,7.37
2018-10-06T10:00:11.696Z,6.97
2018-10-06T10:02:46.030Z,6.63
2018-10-06T10:05:20.444Z,7.03
2018-10-06T10:07:49.518Z,7.27
2018-10-06T10:10:18.562Z,6.40
2018-10-06T10:12:47.732Z,6.20
2018-10-06T10:15:16.712Z,6.20
2018-10-06T10:17:45.873Z,6.60
2018-10-06T10:20:14.798Z,6.33
2018-10-06T10:22:43.936Z,6.00
2018-10-06T10:25:13.118Z,5.40
2018-10-06T10:27:42.226Z,5.87
2018-10-06T10:30:11.386Z,5.60
2018-10-06T10:32:40.487Z,5.63
2018-10-06T10:35:09.644Z,5.10
2018-10-06T10:37:38.698Z,6.00
2018-10-06T10:40:07.972Z,5.77
2018-10-06T10:42:37.018Z,5.57
2018-10-06T10:45:06.126Z,5.40
2018-10-06T10:47:35.412Z,4.60
2018-10-06T10:50:04.610Z,5.10
2018-10-06T10:52:33.764Z,4.50
2018-10-06T10:55:02.804Z,4.73
2018-10-06T10:57:31.862Z,4.67
2018-10-06T11:00:01.146Z,4.87
2018-10-06T11:02:30.080Z,4.63
2018-10-06T11:04:59.154Z,4.93
2018-10-06T11:07:28.228Z,4.20
2018-10-06T11:09:57.302Z,4.10
2018-10-06T11:12:26.386Z,4.47
2018-10-06T11:14:55.737Z,4.30
2018-10-06T11:17:24.868Z,4.40
2018-10-06T11:19:53.877Z,4.00
2018-10-06T11:22:23.887Z,4.23
2018-10-06T11:24:52.990Z,4.30
2018-10-06T11:27:22.013Z,4.23
2018-10-06T11:29:51.001Z,3.47
2018-10-06T11:32:20.009Z,4.50
2018-10-06T11:34:49.061Z,3.70
2018-10-06T11:37:18.101Z,3.83
2018-10-06T11:39:47.117Z,3.63
2018-10-06T11:42:16.279Z,3.67
2018-10-06T11:44:45.403Z,3.77
2018-10-06T11:47:14.498Z,3.97
2018-10-06T11:49:43.599Z,4.17
2018-10-06T11:52:12.683Z,3.90
2018-10-06T11:54:41.948Z,4.20
2018-10-06T11:57:11.030Z,3.97
2018-10-06T11:59:40.152Z,4.10
2018-10-06T12:02:09.167Z,3.53
2018-10-06T12:04:38.285Z,4.27
2018-10-06T12:07:07.544Z,3.83
2018-10-06T12:09:36.538Z,3.77
2018-10-06T12:12:09.355Z,3.67
2018-10-06T12:14:38.435Z,3.30
2018-10-06T12:17:07.539Z,3.87
2018-10-06T12:19:36.641Z,4.00
2018-10-06T12:22:05.730Z,3.93
2018-10-06T12:24:34.814Z,3.93
2018-10-06T12:27:03.978Z,3.70
2018-10-06T12:29:33.017Z,3.77
2018-10-06T12:32:02.104Z,3.53
2018-10-06T12:34:31.126Z,3.60
2018-10-06T12:37:00.203Z,3.80
2018-10-06T12:39:29.396Z,3.33
2018-10-06T12:41:58.479Z,3.50
2018-10-06T12:44:27.588Z,4.10
2018-10-06T12:46:56.628Z,3.40
2018-10-06T12:49:25.689Z,3.60
2018-10-06T12:51:54.725Z,3.93
2018-10-06T12:54:23.712Z,3.77
2018-10-06T12:56:52.805Z,3.50
2018-10-06T12:59:21.865Z,3.30
2018-10-06T13:01:50.933Z,3.70
2018-10-06T13:04:19.974Z,3.63
2018-10-06T13:06:49.033Z,3.93
2018-10-06T13:09:18.578Z,3.60
2018-10-06T13:11:47.867Z,3.43
2018-10-06T13:14:16.902Z,3.60
2018-10-06T13:16:45.938Z,3.77
2018-10-06T13:19:15.028Z,3.73
2018-10-06T13:21:44.084Z,3.63
2018-10-06T13:24:13.073Z,3.20
2018-10-06T13:26:42.079Z,3.63
2018-10-06T13:29:11.051Z,3.87
2018-10-06T13:31:40.107Z,3.50
2018-10-06T13:34:09.220Z,3.67
2018-10-06T13:36:38.510Z,3.87
2018-10-06T13:39:08.478Z,3.80
2018-10-06T13:41:37.588Z,3.80
2018-10-06T13:44:06.707Z,4.07
2018-10-06T13:46:35.870Z,3.73
2018-10-06T13:49:04.878Z,3.97
2018-10-06T13:51:33.966Z,3.50
2018-10-06T13:54:03.005Z,3.67
2018-10-06T13:56:32.082Z,4.17
2018-10-06T13:59:01.276Z,4.07
2018-10-06T14:01:30.350Z,4.10
2018-10-06T14:03:59.466Z,4.00
2018-10-06T14:06:28.614Z,4.00
2018-10-06T14:08:57.856Z,4.00
2018-10-06T14:11:26.938Z,4.20
2018-10-06T14:13:56.058Z,4.03
2018-10-06T14:16:25.085Z,3.90
2018-10-06T14:18:54.199Z,4.10
2018-10-06T14:21:23.309Z,3.73
2018-10-06T14:23:52.442Z,3.70
2018-10-06T14:26:21.794Z,3.57
2018-10-06T14:28:50.815Z,3.77
2018-10-06T14:31:19.927Z,3.50
2018-10-06T14:33:49.010Z,3.30
2018-10-06T14:36:18.142Z,3.87
2018-10-06T14:38:47.214Z,3.80
2018-10-06T14:41:16.314Z,3.07
2018-10-06T14:43:45.426Z,3.03
2018-10-06T14:46:14.522Z,3.40
2018-10-06T14:48:43.652Z,3.80
2018-10-06T14:51:13.185Z,3.73
2018-10-06T14:53:42.323Z,3.60
2018-10-06T14:56:11.397Z,5.50
2018-10-06T14:58:40.483Z,4.27
2018-10-06T15:01:09.586Z,4.20
2018-10-06T15:03:38.633Z,4.23
2018-10-06T15:06:07.689Z,4.53
2018-10-06T15:08:36.791Z,4.03
2018-10-06T15:11:05.963Z,3.50
2018-10-06T15:13:36.027Z,3.30
2018-10-06T15:16:05.121Z,4.57
2018-10-06T15:18:34.185Z,4.60
2018-10-06T15:21:03.311Z,3.63
2018-10-06T15:23:32.337Z,3.60
2018-10-06T15:26:01.355Z,3.87
2018-10-06T15:28:30.465Z,3.10
2018-10-06T15:30:59.534Z,3.03
2018-10-06T15:33:28.633Z,3.13
2018-10-06T15:35:58.056Z,3.97
2018-10-06T15:38:27.074Z,4.00
2018-10-06T15:40:56.170Z,3.50
2018-10-06T15:43:25.209Z,3.40
2018-10-06T15:45:54.225Z,3.60
2018-10-06T15:48:23.350Z,3.47
2018-10-06T15:50:52.552Z,4.00
2018-10-06T15:53:21.701Z,3.50
2018-10-06T15:55:50.685Z,3.57
2018-10-06T15:58:19.703Z,3.47
2018-10-06T16:00:48.694Z,3.40
2018-10-06T16:03:17.678Z,3.77
2018-10-06T16:05:46.856Z,3.10
2018-10-06T16:08:15.963Z,3.10
2018-10-06T16:10:44.977Z,3.77
2018-10-06T16:13:14.179Z,3.30
2018-10-06T16:15:43.337Z,3.40
2018-10-06T16:18:12.354Z,3.17
2018-10-06T16:20:41.376Z,3.50
2018-10-06T16:23:10.462Z,3.60
2018-10-06T16:25:39.519Z,3.27
2018-10-06T16:28:08.614Z,3.97
2018-10-06T16:30:37.644Z,3.60
2018-10-06T16:33:06.945Z,3.77
2018-10-06T16:35:36.070Z,3.43
2018-10-06T16:38:05.273Z,3.40
2018-10-06T16:40:34.341Z,3.90
2018-10-06T16:43:03.444Z,3.60
2018-10-06T16:45:32.820Z,4.17
2018-10-06T16:48:01.939Z,4.20
2018-10-06T16:50:31.082Z,3.60
2018-10-06T16:53:00.146Z,4.00
2018-10-06T16:55:29.182Z,4.10
2018-10-06T16:57:58.258Z,3.80
2018-10-06T17:00:27.415Z,4.43
2018-10-06T17:02:56.442Z,4.43
2018-10-06T17:05:25.551Z,4.40
2018-10-06T17:07:54.654Z,4.30
2018-10-06T17:10:24.509Z,4.17
2018-10-06T17:12:53.598Z,3.90
2018-10-06T17:15:22.677Z,4.00
2018-10-06T17:17:51.674Z,4.40
2018-10-06T17:20:21.016Z,4.17
2018-10-06T17:22:50.064Z,4.63
2018-10-06T17:25:19.081Z,3.40
2018-10-06T17:27:48.158Z,4.07
2018-10-06T17:30:17.332Z,4.10
2018-10-06T17:32:46.377Z,4.13
2018-10-06T17:35:15.373Z,4.43
2018-10-06T17:37:44.455Z,4.20
2018-10-06T17:40:13.491Z,24.47
2018-10-06T17:42:42.561Z,5.67
2018-10-06T17:45:11.631Z,6.10
2018-10-06T17:47:40.785Z,5.20
2018-10-06T17:50:10.104Z,5.00
2018-10-06T17:52:38.928Z,5.03
2018-10-06T17:55:07.929Z,4.93
2018-10-06T17:57:37.468Z,5.00
2018-10-06T18:00:06.521Z,5.47
2018-10-06T18:02:35.515Z,5.20
2018-10-06T18:05:04.614Z,5.43
2018-10-06T18:07:33.721Z,5.20
2018-10-06T18:10:02.860Z,5.30
2018-10-06T18:12:31.885Z,6.40
2018-10-06T18:15:00.969Z,5.70
2018-10-06T18:17:30.051Z,5.50
2018-10-06T18:19:59.149Z,6.07
2018-10-06T18:22:28.143Z,5.53
2018-10-06T18:24:57.233Z,6.10
2018-10-06T18:27:26.311Z,6.73
2018-10-06T18:29:55.373Z,7.70
2018-10-06T18:32:24.439Z,9.10
2018-10-06T18:34:53.556Z,11.93
2018-10-06T18:37:22.715Z,11.37
2018-10-06T18:39:51.743Z,13.03
2018-10-06T18:42:20.806Z,14.57
2018-10-06T18:44:49.937Z,14.90
2018-10-06T18:47:19.059Z,15.50
2018-10-06T18:49:48.122Z,17.03
2018-10-06T18:52:17.232Z,16.57
2018-10-06T18:54:46.375Z,17.07
2018-10-06T18:57:15.407Z,18.40
2018-10-06T18:59:44.516Z,19.73
2018-10-06T19:02:13.635Z,19.97
2018-10-06T19:04:42.725Z,20.17
2018-10-06T19:07:11.788Z,20.70
2018-10-06T19:09:40.895Z,20.67
2018-10-06T19:12:10.025Z,21.97
2018-10-06T19:14:39.082Z,22.90
2018-10-06T19:17:08.169Z,23.17
2018-10-06T19:19:37.308Z,22.80
2018-10-06T19:22:06.364Z,24.77
2018-10-06T19:24:35.434Z,25.53
2018-10-06T19:27:04.601Z,25.73
2018-10-06T19:29:33.690Z,26.10
2018-10-06T19:32:02.730Z,26.43
2018-10-06T19:34:31.852Z,27.03
2018-10-06T19:37:00.886Z,26.07
2018-10-06T19:39:29.948Z,26.87
2018-10-06T19:41:59.018Z,26.03
2018-10-06T19:44:28.343Z,25.27
2018-10-06T19:46:57.450Z,26.17
2018-10-06T19:49:26.440Z,25.10
2018-10-06T19:51:55.456Z,26.37
2018-10-06T19:54:24.475Z,27.57
2018-10-06T19:56:53.467Z,27.63
2018-10-06T19:59:22.482Z,26.60
2018-10-06T20:01:51.626Z,27.07
2018-10-06T20:04:20.784Z,26.27
2018-10-06T20:06:49.744Z,26.17
2018-10-06T20:09:18.744Z,26.73
2018-10-06T20:11:47.824Z,25.90
2018-10-06T20:14:16.907Z,26.50
2018-10-06T20:16:45.978Z,26.67
2018-10-06T20:19:15.162Z,25.90
2018-10-06T20:21:44.158Z,25.93
2018-10-06T20:24:13.216Z,25.40
2018-10-06T20:26:42.226Z,25.37
2018-10-06T20:29:17.832Z,26.50
2018-10-06T20:31:46.986Z,27.13
2018-10-06T20:34:16.098Z,28.63
2018-10-06T20:36:45.183Z,27.37
2018-10-06T20:39:14.278Z,27.97
2018-10-06T20:41:43.394Z,26.53
2018-10-06T20:44:12.426Z,28.03
2018-10-06T20:46:41.461Z,28.03
2018-10-06T20:49:10.537Z,28.47
2018-10-06T20:51:39.638Z,28.50
2018-10-06T20:54:08.765Z,30.37
2018-10-06T20:56:37.796Z,29.67
2018-10-06T20:59:06.805Z,29.90
2018-10-06T21:01:35.959Z,31.17
2018-10-06T21:04:05.014Z,30.80
2018-10-06T21:06:34.077Z,32.00
2018-10-06T21:09:03.195Z,32.63
2018-10-06T21:11:32.307Z,32.57
2018-10-06T21:14:01.385Z,34.50
2018-10-06T21:16:30.357Z,33.10
2018-10-06T21:18:59.406Z,34.00
2018-10-06T21:21:28.497Z,34.50
2018-10-06T21:23:57.554Z,34.57
2018-10-06T21:26:26.557Z,35.73
2018-10-06T21:28:55.627Z,36.00
2018-10-06T21:31:24.643Z,35.73
2018-10-06T21:33:53.617Z,37.33
2018-10-06T21:36:22.615Z,38.03
2018-10-06T21:38:51.700Z,40.07
2018-10-06T21:41:20.717Z,39.63
2018-10-06T21:43:49.909Z,39.40
2018-10-06T21:46:19.859Z,38.57
2018-10-06T21:48:48.865Z,38.83
2018-10-06T21:51:17.883Z,40.57
2018-10-06T21:53:46.927Z,41.70
2018-10-06T21:56:15.987Z,40.80
2018-10-06T21:58:45.004Z,41.80
2018-10-06T22:01:14.936Z,43.40
2018-10-06T22:03:43.906Z,43.30
2018-10-06T22:06:12.921Z,43.37
2018-10-06T22:08:42.569Z,43.80
2018-10-06T22:11:12.959Z,44.30
2018-10-06T22:13:42.487Z,45.67
2018-10-06T22:16:11.516Z,46.97
2018-10-06T22:18:40.568Z,48.37
2018-10-06T22:21:09.735Z,48.57
2018-10-06T22:23:38.942Z,48.67
2018-10-06T22:26:08.050Z,48.57
2018-10-06T22:28:37.164Z,50.47
2018-10-06T22:31:06.439Z,49.47
2018-10-06T22:33:35.582Z,51.47
2018-10-06T22:36:04.668Z,53.07
2018-10-06T22:38:33.838Z,51.10
2018-10-06T22:41:02.933Z,51.43
2018-10-06T22:43:32.071Z,51.07
2018-10-06T22:46:01.216Z,50.17
2018-10-06T22:48:30.413Z,53.70
2018-10-06T22:50:59.539Z,55.50
2018-10-06T22:53:28.694Z,59.47
2018-10-06T22:55:57.803Z,57.47
2018-10-06T22:58:26.973Z,60.60
2018-10-06T23:00:56.019Z,58.93
2018-10-06T23:03:25.128Z,56.10
2018-10-06T23:05:54.280Z,58.73
2018-10-06T23:08:23.619Z,58.77
2018-10-06T23:10:52.703Z,60.53
2018-10-06T23:13:21.847Z,58.83
2018-10-06T23:15:50.883Z,62.10
2018-10-06T23:18:19.985Z,58.93
2018-10-06T23:20:49.714Z,63.87
2018-10-06T23:23:18.854Z,61.93
2018-10-06T23:25:48.172Z,64.37
2018-10-06T23:28:17.303Z,65.97
2018-10-06T23:30:46.390Z,65.80
2018-10-06T23:33:15.491Z,63.40
2018-10-06T23:35:44.629Z,63.67
2018-10-06T23:38:13.757Z,66.73
2018-10-06T23:40:42.871Z,68.77
2018-10-06T23:43:11.980Z,69.77
2018-10-06T23:45:41.082Z,69.07
2018-10-06T23:48:10.169Z,71.70
2018-10-06T23:50:39.271Z,70.30
2018-10-06T23:53:08.387Z,75.23
2018-10-06T23:55:37.435Z,75.60
2018-10-06T23:58:06.548Z,75.70
